< Cyclone 200504 2005 Season Cyclone 200506 >
Cyclone 200505 (HARVEY)
General InformationTrack Information on Google MapsDetailed Wind InformationList of All Images || ResourceGoogle EarthGE AnimationAtom FeedGeoJSON
Detalied Best Track (Time Zone = UTC)
Year Month Day Hour Lat. Long. Pressure (hPa) Wind (kt) Class Image Chart
2005 2 3 12 -13.9 135.8 1004 20 2 Image --
2005 2 3 18 -13.4 136.8 1003 20 2 Image --
2005 2 4 00 -12.9 137.0 1005 20 2 Image --
2005 2 4 06 -12.9 137.0 1002 20 2 Image --
2005 2 4 12 -12.9 138.5 1003 20 2 Image --
2005 2 4 18 -13.1 139.0 1000 25 2 Image --
2005 2 5 00 -13.4 139.5 998 30 2 Image --
2005 2 5 06 -13.7 140.0 998 30 2 Image --
2005 2 5 12 -14.0 140.0 995 32 2 Image --
2005 2 5 18 -13.9 140.0 995 32 2 Image --
2005 2 6 00 -13.9 139.7 993 35 3 Image --
2005 2 6 06 -14.5 139.7 990 40 3 Image --
2005 2 6 12 -14.5 139.3 990 40 3 Image --
2005 2 6 18 -14.9 139.3 987 45 3 Image --
2005 2 7 00 -15.6 138.8 978 55 4 Image --
2005 2 7 06 -16.1 138.1 970 65 5 Image --
2005 2 7 08 -16.4 137.7 967 70 5 Image --
2005 2 7 12 -16.6 137.2 980 55 4 Image --
2005 2 7 15 -16.7 137.2 990 40 3 Image --
2005 2 7 18 -16.8 137.1 997 30 2 Image --
< Cyclone 200504 2005 Season Cyclone 200506 >

Help